Etusivu
METAR-TAF:

METAR-TAF

Lentoasemat :

Southwest Minnesota Regional Airport (Marshall/Ryan Field)

Marshall, Minnesota, Yhdysvallat

Leveyspiiri: 44-27N, Pituuspiiri: 095-49W, korkeus merenpinnasta: 359 m

Tämänhetkinen sää

Tämä raportti tehtiin 40 minuuttia sitten, kello 08.56 UTC
Tuuli 4 kn etelästä/kaakosta
Lämpötila -4°C
Kosteus 74%
Ilmanpaine 1009 hPa
Näkyvyys: 16.1 km
Hajanaisia pilviä 9000 ft:n korkeudessa

METAR: KMML 130856Z AUTO 16004KT 10SM SCT090 M04/M08 A2981 RMK AO2 SLP114 T10391078 56013 FZRANO

Aika: 03:36 (09:36 UTC)


TAF: puuttuu

Säähavainnot ja -ennusteet yli 4000 lentoasemalta (METAR- ja TAF-raportit).

Käytössä olevat sääasemat on merkitty karttaan keltaisilla ja punaisilla pisteillä.

Aseta hiiri pisteen päälle nähdäksesi sääaseman nimen.

Klikkaa sitten nähdäksesi säähavainnot ja -ennusteet.

Kartan vaihtaminen: klikkaa mustalla rastilla varustettuja vihreitä pisteitä, niin voit zoomata sisään; viivalla varustettua vihreää pistettä, niin voit zoomata ulos tai vihreitä nuolia, niin pääset viereisille kartoille.


METAR-TAF: